Hauptseite
METAR-TAF:

METAR-TAF

Flughäfen :

Niederstetten, Deutschland

Heeresflugplatz Niederstetten

Breite: 49-24N, Länge: 009-58E, Höhe: 468 m

Beobachtung

Neuester Wetterbericht von vor 39 Minuten, um 11:20 UTC
Wind 3 kt aus West
Temperatur 18°C
Luftfeuchtigkeit 49%
Luftdruck 1024 hPa
Sichtweite 10 km oder mehr
Aufgelockert bewölkt in der Höhe von 4500 ft
Aufgelockert bewölkt in der Höhe von 6000 ft

METAR: ETHN 211120Z 28003KT 9999 SCT045 SCT060 18/07 Q1024 BLU+BLU+

Zeit: 13:59 (11:59 UTC)

Prognose

Neuester Wetterbericht von vor 1 Stunde und 22 Minuten, um 10:37 UTC
Gültige Prognose vom 21 um 11 UTC bis 21 um 20 UTC
Wind 5 kt aus Südwest
Sichtweite 10 km oder mehr
Aufgelockert bewölkt in der Höhe von 4000 ft

TAF: ETHN 211037Z 2111/2120 23005KT 9999 NSW SCT040

Wetterbeobachtungen und Prognosen von mehr als 4000 Flughäfen (METAR und TAF Bericht).

Die verfügbaren Stationen werden durch gelbe und rote Markierungen auf der Karte dargestellt.

Führen Sie die Maus auf sie, um den Namen der Station zu sehen.

Darauf klicken, um die Beobachtung von Wetterbeobachtungen und Prognosen zu sehen.

Um die Karte zu ändern : klicken Sie auf den grünen Tasten mit einem schwarzen Kreuz Zum Vergrößern, auf den grünen Button mit einem Gedankenstrich zu verkleinern, oder auf die grünen Pfeile für benachbarte Karten.


METAR-TAF: